Pagrindinis puslapis
METAR-TAF:

METAR-TAF

Oro uostai :

Jubail, Saudo Arabija

platuma: 27-02-20N, ilguma: 49-24-18E, Aukštis: 8 m

Dabartinis oras

Ataskaita buvo paskelbta 1 valandą ir 5 minutes, ne 08:00 UTC
Vėjas 16 kt iš Pietų
Temperatūra 18°C
Drėgmė 34%
Slėgis 1020 hPa
Matomumas: 9000 m
Mažai debesys ne aukštis 400 ft

METAR: OEJB 250800Z AUTO 18016KT 9000 FEW004 18/02 Q1020 NOSIG

Laikas: 12:05 (09:05 UTC)


TAF: trūkstamas

Orai ataskaitas ir orų prognozės (METAR, TAF).

turimą stotys yra geltonos ir raudonos taškus žemėlapyje.

Perkelti pele per norėdami pamatyti stoties vardą.

Tada spustelėkite, norėdami matyti oro stebėjimo ir prognozės.

Norėdami pakeisti žemėlapį: spustelėkite ant žalios mygtukų su juodo kryžiaus žemyn,; žalią mygtuką su brūkšneliu, jei norite nutolinti; arba žalių rodyklių gretimoms žemėlapius.


METAR-TAF: